Sainte-Croix, Canada
Current Conditions -  °F | °C
As of 6:00 AM on Monday 22 Dec 2014 (Local Time) from CYQB Reporting Station
Light Snow Light Snow  
Wind Chill: -9°   Ceiling: 1800
Heat Index: -9°   Visibility: 10mi
Dew Point: -11°   Wind: 2mph
Humidity: 86%   Direction: 360°N
Pressure: 30.42"   Gusts: NA
Location:  46.62°N, 71.73°W
Report Text: CYQB 221100Z 36002KT 10SM -SN FEW011 OVC018 M09/M11 A3042 RMK SC2SC6 SLP308
Loading
Personal Weather Stations






























Interactive Weather Map New forecast layout! Learn more

10-Day Weather Forecast

Advertisements
Track Severe Weather on mobile